createdAt,value
2022-10-30T00:01:04.882Z,16.17
2022-10-30T00:03:31.897Z,16.17
2022-10-30T00:05:59.232Z,16.10
2022-10-30T00:08:26.704Z,15.98
2022-10-30T00:10:54.253Z,15.87
2022-10-30T00:13:22.206Z,15.91
2022-10-30T00:15:53.865Z,15.96
2022-10-30T00:18:21.631Z,16.02
2022-10-30T00:20:49.776Z,15.83
2022-10-30T00:23:17.136Z,15.60
2022-10-30T00:25:44.171Z,15.63
2022-10-30T00:28:13.003Z,15.63
2022-10-30T00:30:40.279Z,15.70
2022-10-30T00:33:32.983Z,15.72
2022-10-30T00:36:01.127Z,15.71
2022-10-30T00:38:28.383Z,15.74
2022-10-30T00:40:55.511Z,15.78
2022-10-30T00:43:40.981Z,15.75
2022-10-30T00:46:26.436Z,15.85
2022-10-30T00:49:02.670Z,15.78
2022-10-30T00:51:33.160Z,15.56
2022-10-30T00:54:03.544Z,15.60
2022-10-30T00:56:31.722Z,15.63
2022-10-30T00:59:10.286Z,15.58
2022-10-30T01:01:40.603Z,15.43
2022-10-30T01:04:08.791Z,15.43
2022-10-30T01:06:39.328Z,15.54
2022-10-30T01:09:07.205Z,15.59
2022-10-30T01:11:34.741Z,15.66
2022-10-30T01:14:07.294Z,15.57
2022-10-30T01:17:02.871Z,15.63
2022-10-30T01:19:57.206Z,15.67
2022-10-30T01:22:52.672Z,15.57
2022-10-30T01:25:44.931Z,15.63
2022-10-30T01:28:45.618Z,15.21
2022-10-30T01:31:48.960Z,15.31
2022-10-30T01:34:43.985Z,15.50
2022-10-30T01:37:21.076Z,15.54
2022-10-30T01:39:48.404Z,15.54
2022-10-30T01:42:59.043Z,15.59
2022-10-30T01:45:50.633Z,15.60
2022-10-30T01:49:04.413Z,15.65
2022-10-30T01:51:54.745Z,15.62
2022-10-30T01:54:47.101Z,15.60
2022-10-30T01:57:51.520Z,15.63
2022-10-30T02:00:20.388Z,15.58
2022-10-30T02:02:50.256Z,15.58
2022-10-30T02:05:51.772Z,15.54
2022-10-30T02:08:21.998Z,15.54
2022-10-30T02:10:53.094Z,15.39
2022-10-30T02:13:32.291Z,15.46
2022-10-30T02:15:59.659Z,15.47
2022-10-30T02:18:26.798Z,15.45
2022-10-30T02:20:54.030Z,15.44
2022-10-30T02:23:22.400Z,15.49
2022-10-30T02:25:50.684Z,15.37
2022-10-30T02:28:20.078Z,15.36
2022-10-30T02:30:47.308Z,15.43
2022-10-30T02:33:15.010Z,15.46
2022-10-30T02:35:42.363Z,15.03
2022-10-30T02:38:09.689Z,14.84
2022-10-30T02:40:37.051Z,15.08
2022-10-30T02:43:04.284Z,15.15
2022-10-30T02:45:31.912Z,15.17
2022-10-30T02:48:01.096Z,15.25
2022-10-30T02:50:29.071Z,15.07
2022-10-30T02:52:56.468Z,15.10
2022-10-30T02:55:23.822Z,15.06
2022-10-30T02:57:51.795Z,14.80
2022-10-30T03:00:18.771Z,14.70
2022-10-30T03:02:45.898Z,14.87
2022-10-30T03:05:13.463Z,15.00
2022-10-30T03:07:40.541Z,15.03
2022-10-30T03:10:08.341Z,15.07
2022-10-30T03:12:36.370Z,15.05
2022-10-30T03:15:03.677Z,15.12
2022-10-30T03:17:30.929Z,14.89
2022-10-30T03:19:58.081Z,15.06
2022-10-30T03:22:25.184Z,15.13
2022-10-30T03:24:53.641Z,15.10
2022-10-30T03:27:20.705Z,15.04
2022-10-30T03:29:50.746Z,15.08
2022-10-30T03:32:17.902Z,15.10
2022-10-30T03:34:52.435Z,15.07
2022-10-30T03:37:19.905Z,15.02
2022-10-30T03:39:47.168Z,15.02
2022-10-30T03:42:14.144Z,15.01
2022-10-30T03:44:41.206Z,14.99
2022-10-30T03:47:08.957Z,14.94
2022-10-30T03:49:40.663Z,14.95
2022-10-30T03:52:11.630Z,14.89
2022-10-30T03:54:38.659Z,14.89
2022-10-30T03:57:05.961Z,14.76
2022-10-30T03:59:56.112Z,14.42
2022-10-30T04:02:52.292Z,14.46
2022-10-30T04:05:23.396Z,14.52
2022-10-30T04:07:59.053Z,14.56
2022-10-30T04:10:27.419Z,14.52
2022-10-30T04:13:07.271Z,14.56
2022-10-30T04:15:37.164Z,14.34
2022-10-30T04:18:05.190Z,14.43
2022-10-30T04:20:37.421Z,14.49
2022-10-30T04:23:07.463Z,14.42
2022-10-30T04:25:35.554Z,14.40
2022-10-30T04:28:03.342Z,14.33
2022-10-30T04:30:35.155Z,14.40
2022-10-30T04:33:05.883Z,14.39
2022-10-30T04:35:59.052Z,14.34
2022-10-30T04:38:26.328Z,14.24
2022-10-30T04:40:53.723Z,14.20
2022-10-30T04:43:20.969Z,14.30
2022-10-30T04:45:52.160Z,14.34
2022-10-30T04:48:19.681Z,14.32
2022-10-30T04:50:48.120Z,14.30
2022-10-30T04:53:24.872Z,14.34
2022-10-30T04:55:58.002Z,14.26
2022-10-30T04:58:27.328Z,14.28
2022-10-30T05:01:04.953Z,14.24
2022-10-30T05:03:32.892Z,14.21
2022-10-30T05:06:24.448Z,14.13
2022-10-30T05:08:56.609Z,14.15
2022-10-30T05:11:39.105Z,14.08
2022-10-30T05:14:06.841Z,14.04
2022-10-30T05:16:33.896Z,14.04
2022-10-30T05:19:03.378Z,13.86
2022-10-30T05:21:31.016Z,13.85
2022-10-30T05:23:59.201Z,13.84
2022-10-30T05:26:27.659Z,13.85
2022-10-30T05:28:55.063Z,13.86
2022-10-30T05:31:22.599Z,13.83
2022-10-30T05:34:28.085Z,13.83
2022-10-30T05:37:01.484Z,13.79
2022-10-30T05:39:28.694Z,13.73
2022-10-30T05:41:56.091Z,13.70
2022-10-30T05:44:47.276Z,13.71
2022-10-30T05:47:14.332Z,13.67
2022-10-30T05:49:45.878Z,13.61
2022-10-30T05:52:17.410Z,13.66
2022-10-30T05:54:44.512Z,13.67
2022-10-30T05:57:41.141Z,13.53
2022-10-30T06:00:09.407Z,13.57
2022-10-30T06:02:42.621Z,13.57
2022-10-30T06:05:09.870Z,13.46
2022-10-30T06:07:37.642Z,13.52
2022-10-30T06:10:06.126Z,13.60
2022-10-30T06:12:44.242Z,13.49
2022-10-30T06:15:23.139Z,13.42
2022-10-30T06:17:50.562Z,13.44
2022-10-30T06:20:26.924Z,13.45
2022-10-30T06:23:25.919Z,13.53
2022-10-30T06:25:58.541Z,13.48
2022-10-30T06:28:35.861Z,13.52
2022-10-30T06:31:03.683Z,13.59
2022-10-30T06:33:31.994Z,13.59
2022-10-30T06:36:00.534Z,13.58
2022-10-30T06:38:29.549Z,13.50
2022-10-30T06:40:56.883Z,13.57
2022-10-30T06:43:31.986Z,13.29
2022-10-30T06:46:04.158Z,13.44
2022-10-30T06:48:32.883Z,13.60
2022-10-30T06:51:02.878Z,13.71
2022-10-30T06:53:32.840Z,13.78
2022-10-30T06:56:19.834Z,13.91
2022-10-30T06:59:03.129Z,13.83
2022-10-30T07:01:45.529Z,14.03
2022-10-30T07:04:17.818Z,14.07
2022-10-30T07:06:45.169Z,14.23
2022-10-30T07:09:12.484Z,13.99
2022-10-30T07:11:45.486Z,14.10
2022-10-30T07:14:22.718Z,14.18
2022-10-30T07:17:05.913Z,14.20
2022-10-30T07:19:33.181Z,14.36
2022-10-30T07:22:04.024Z,14.37
2022-10-30T07:24:32.641Z,14.44
2022-10-30T07:27:11.758Z,14.47
2022-10-30T07:29:45.178Z,14.50
2022-10-30T07:32:18.991Z,14.52
2022-10-30T07:34:50.890Z,14.69
2022-10-30T07:37:34.534Z,14.75
2022-10-30T07:40:12.512Z,14.78
2022-10-30T07:43:01.083Z,14.84
2022-10-30T07:45:37.193Z,14.94
2022-10-30T07:48:22.908Z,14.96
2022-10-30T07:51:02.105Z,14.81
2022-10-30T07:53:29.879Z,14.94
2022-10-30T07:55:58.071Z,15.08
2022-10-30T07:58:54.376Z,15.19
2022-10-30T08:01:55.153Z,15.30
2022-10-30T08:04:35.025Z,15.44
2022-10-30T08:07:13.361Z,15.46
2022-10-30T08:09:40.481Z,15.56
2022-10-30T08:12:07.881Z,15.59
2022-10-30T08:14:34.930Z,15.78
2022-10-30T08:17:02.564Z,15.29
2022-10-30T08:19:29.808Z,15.66
2022-10-30T08:21:59.226Z,15.93
2022-10-30T08:24:27.823Z,16.07
2022-10-30T08:26:58.417Z,16.15
2022-10-30T08:29:27.185Z,16.33
2022-10-30T08:31:55.387Z,16.48
2022-10-30T08:34:23.204Z,16.51
2022-10-30T08:36:54.322Z,16.62
2022-10-30T08:39:21.682Z,16.69
2022-10-30T08:42:01.773Z,16.85
2022-10-30T08:44:34.783Z,17.00
2022-10-30T08:47:20.478Z,16.76
2022-10-30T08:49:47.743Z,17.15
2022-10-30T08:52:18.144Z,17.35
2022-10-30T08:54:49.560Z,17.23
2022-10-30T08:57:16.677Z,17.57
2022-10-30T08:59:43.760Z,17.60
2022-10-30T09:02:24.834Z,17.49
2022-10-30T09:05:11.087Z,17.38
2022-10-30T09:08:10.138Z,17.31
2022-10-30T09:10:58.053Z,17.85
2022-10-30T09:13:26.483Z,18.08
2022-10-30T09:16:00.300Z,18.24
2022-10-30T09:18:28.498Z,18.40
2022-10-30T09:20:55.843Z,18.63
2022-10-30T09:23:23.359Z,18.81
2022-10-30T09:25:59.581Z,18.98
2022-10-30T09:28:45.627Z,18.93
2022-10-30T09:31:44.549Z,18.98
2022-10-30T09:34:15.695Z,19.05
2022-10-30T09:36:54.480Z,19.35
2022-10-30T09:39:22.817Z,19.62
2022-10-30T09:42:36.368Z,19.86
2022-10-30T09:45:28.056Z,19.60
2022-10-30T09:48:15.788Z,20.08
2022-10-30T09:51:33.635Z,20.26
2022-10-30T09:54:39.519Z,20.06
2022-10-30T09:57:34.931Z,20.51
2022-10-30T10:00:07.882Z,20.50
2022-10-30T10:03:00.490Z,20.76
2022-10-30T10:05:46.368Z,20.95
2022-10-30T10:08:44.676Z,20.90
2022-10-30T10:11:40.067Z,20.59
2022-10-30T10:14:13.778Z,20.53
2022-10-30T10:16:43.482Z,20.88
2022-10-30T10:19:21.201Z,21.24
2022-10-30T10:22:00.415Z,21.33
2022-10-30T10:24:35.095Z,21.55
2022-10-30T10:27:23.686Z,21.63
2022-10-30T10:30:04.387Z,22.00
2022-10-30T10:33:00.970Z,22.11
2022-10-30T10:35:43.506Z,22.08
2022-10-30T10:38:20.019Z,22.37
2022-10-30T10:41:27.179Z,22.53
2022-10-30T10:45:07.001Z,22.84
2022-10-30T10:47:57.997Z,22.94
2022-10-30T10:50:34.585Z,23.21
2022-10-30T10:53:09.908Z,23.48
2022-10-30T10:55:39.115Z,23.47
2022-10-30T10:58:44.133Z,23.66
2022-10-30T11:01:21.594Z,23.69
2022-10-30T11:03:59.348Z,24.19
2022-10-30T11:06:30.264Z,24.25
2022-10-30T11:09:13.391Z,24.31
2022-10-30T11:11:40.419Z,24.51
2022-10-30T11:14:18.383Z,24.46
2022-10-30T11:16:51.410Z,24.72
2022-10-30T11:19:18.524Z,24.99
2022-10-30T11:21:52.159Z,25.18
2022-10-30T11:24:30.593Z,25.45
2022-10-30T11:27:18.157Z,25.63
2022-10-30T11:30:06.242Z,25.43
2022-10-30T11:32:34.734Z,25.77
2022-10-30T11:35:07.966Z,26.00
2022-10-30T11:37:40.857Z,26.34
2022-10-30T11:40:11.288Z,26.56
2022-10-30T11:42:49.976Z,26.75
2022-10-30T11:45:31.392Z,26.97
2022-10-30T11:48:02.963Z,27.09
2022-10-30T11:50:32.519Z,27.30
2022-10-30T11:53:13.337Z,27.47
2022-10-30T11:55:46.509Z,27.91
2022-10-30T11:58:34.454Z,28.26
2022-10-30T12:01:06.964Z,28.12
2022-10-30T12:03:40.663Z,28.71
2022-10-30T12:06:20.078Z,29.09
2022-10-30T12:09:21.322Z,29.86
2022-10-30T12:11:49.656Z,30.33
2022-10-30T12:14:23.419Z,30.55
2022-10-30T12:16:54.909Z,30.94
2022-10-30T12:19:24.813Z,31.24
2022-10-30T12:21:57.031Z,31.54
2022-10-30T12:24:27.347Z,31.33
2022-10-30T12:26:56.236Z,31.26
2022-10-30T12:30:06.865Z,31.67
2022-10-30T12:32:48.115Z,32.42
2022-10-30T12:35:44.753Z,32.57
2022-10-30T12:38:55.258Z,32.76
2022-10-30T12:42:07.514Z,32.78
2022-10-30T12:44:42.829Z,32.53
2022-10-30T12:47:28.997Z,32.84
2022-10-30T12:50:17.839Z,32.97
2022-10-30T12:53:01.516Z,32.95
2022-10-30T12:55:38.481Z,32.79
2022-10-30T12:58:37.679Z,31.88
2022-10-30T13:01:26.925Z,31.92
2022-10-30T13:04:18.471Z,32.19
2022-10-30T13:06:52.529Z,31.81
2022-10-30T13:09:33.040Z,31.87
2022-10-30T13:12:20.508Z,31.78
2022-10-30T13:15:10.004Z,32.12
2022-10-30T13:17:37.136Z,32.12
2022-10-30T13:20:13.033Z,31.98
2022-10-30T13:23:04.679Z,32.18
2022-10-30T13:25:53.259Z,31.85
2022-10-30T13:28:33.208Z,32.34
2022-10-30T13:31:30.568Z,32.71
2022-10-30T13:34:25.528Z,32.40
2022-10-30T13:37:37.416Z,32.33
2022-10-30T13:40:22.107Z,31.87
2022-10-30T13:43:42.908Z,32.01
2022-10-30T13:46:32.274Z,32.42
2022-10-30T13:49:19.951Z,31.14
2022-10-30T13:52:05.505Z,32.47
2022-10-30T13:54:39.553Z,33.63
2022-10-30T13:57:28.566Z,34.36
2022-10-30T14:00:22.392Z,33.98
2022-10-30T14:03:32.320Z,34.41
2022-10-30T14:06:29.330Z,35.38
2022-10-30T14:09:43.159Z,35.66
2022-10-30T14:12:46.037Z,35.89
2022-10-30T14:15:32.834Z,35.65
2022-10-30T14:18:12.044Z,34.55
2022-10-30T14:20:50.846Z,34.44
2022-10-30T14:23:38.046Z,34.24
2022-10-30T14:26:10.861Z,33.96
2022-10-30T14:28:42.104Z,33.74
2022-10-30T14:31:12.749Z,32.10
2022-10-30T14:33:42.541Z,31.80
2022-10-30T14:36:33.869Z,31.52
2022-10-30T14:39:10.725Z,31.19
2022-10-30T14:41:45.098Z,31.17
2022-10-30T14:44:36.456Z,31.01
2022-10-30T14:47:24.676Z,30.59
2022-10-30T14:50:27.196Z,30.49
2022-10-30T14:54:00.125Z,30.28
2022-10-30T14:56:38.177Z,29.92
2022-10-30T14:59:14.339Z,29.79
2022-10-30T15:01:56.788Z,29.65
2022-10-30T15:04:56.940Z,29.26
2022-10-30T15:07:57.651Z,29.04
2022-10-30T15:10:36.907Z,28.66
2022-10-30T15:13:20.642Z,27.76
2022-10-30T15:16:03.502Z,26.69
2022-10-30T15:18:31.400Z,26.55
2022-10-30T15:21:07.310Z,26.75
2022-10-30T15:23:36.922Z,26.98
2022-10-30T15:26:19.571Z,26.69
2022-10-30T15:28:50.673Z,26.34
2022-10-30T15:31:17.543Z,26.81
2022-10-30T15:33:45.206Z,26.76
2022-10-30T15:39:20.315Z,26.14
2022-10-30T15:41:57.614Z,25.63
2022-10-30T15:44:32.379Z,25.58
2022-10-30T15:47:04.025Z,25.60
2022-10-30T15:49:35.763Z,25.36
2022-10-30T15:52:13.421Z,25.16
2022-10-30T15:54:43.939Z,25.00
2022-10-30T15:58:01.660Z,24.78
2022-10-30T16:00:24.035Z,24.49
2022-10-30T16:03:22.934Z,24.32
2022-10-30T16:05:49.989Z,23.89
2022-10-30T16:08:24.363Z,23.60
2022-10-30T16:10:55.993Z,23.38
2022-10-30T16:13:29.216Z,23.29
2022-10-30T16:15:56.721Z,23.32
2022-10-30T16:18:28.605Z,23.13
2022-10-30T16:21:02.932Z,23.06
2022-10-30T16:23:37.530Z,22.95
2022-10-30T16:26:04.780Z,22.84
2022-10-30T16:28:37.715Z,22.71
2022-10-30T16:31:08.396Z,22.60
2022-10-30T16:33:37.455Z,22.43
2022-10-30T16:36:07.326Z,22.23
2022-10-30T16:38:36.984Z,22.08
2022-10-30T16:41:07.223Z,22.02
2022-10-30T16:43:35.298Z,21.95
2022-10-30T16:46:14.935Z,21.84
2022-10-30T16:48:55.803Z,21.73
2022-10-30T16:51:23.233Z,21.55
2022-10-30T16:53:53.679Z,21.28
2022-10-30T16:56:30.726Z,21.21
2022-10-30T16:59:13.572Z,21.16
2022-10-30T17:01:40.974Z,21.06
2022-10-30T17:04:15.235Z,21.02
2022-10-30T17:06:44.708Z,20.89
2022-10-30T17:09:30.061Z,20.85
2022-10-30T17:12:19.981Z,20.74
2022-10-30T17:15:04.381Z,20.46
2022-10-30T17:17:39.111Z,20.26
2022-10-30T17:20:22.850Z,20.26
2022-10-30T17:23:26.415Z,20.31
2022-10-30T17:25:55.105Z,20.18
2022-10-30T17:28:34.798Z,20.16
2022-10-30T17:31:25.681Z,19.87
2022-10-30T17:34:19.398Z,19.79
2022-10-30T17:36:59.337Z,19.72
2022-10-30T17:39:26.695Z,19.64
2022-10-30T17:41:57.312Z,19.57
2022-10-30T17:44:25.648Z,19.53
2022-10-30T17:46:54.523Z,19.36
2022-10-30T17:49:32.294Z,19.26
2022-10-30T17:51:59.931Z,19.08
2022-10-30T17:54:26.977Z,19.16
2022-10-30T17:56:54.354Z,19.11
2022-10-30T17:59:21.380Z,19.12
2022-10-30T18:01:49.084Z,19.05
2022-10-30T18:04:20.615Z,19.03
2022-10-30T18:06:48.788Z,18.99
2022-10-30T18:09:16.226Z,18.92
2022-10-30T18:11:43.239Z,18.90
2022-10-30T18:14:11.638Z,18.78
2022-10-30T18:16:39.230Z,18.68
2022-10-30T18:19:09.882Z,18.65
2022-10-30T18:21:36.958Z,18.45
2022-10-30T18:24:10.376Z,18.49
2022-10-30T18:26:40.539Z,17.94
2022-10-30T18:29:09.437Z,18.10
2022-10-30T18:31:37.969Z,18.13
2022-10-30T18:34:17.370Z,17.93
2022-10-30T18:36:44.613Z,17.73
2022-10-30T18:39:12.931Z,17.64
2022-10-30T18:41:45.543Z,17.76
2022-10-30T18:44:17.803Z,17.55
2022-10-30T18:46:46.156Z,17.55
2022-10-30T18:49:13.505Z,17.49
2022-10-30T18:51:40.906Z,17.52
2022-10-30T18:54:13.877Z,17.51
2022-10-30T18:56:41.319Z,17.48
2022-10-30T18:59:08.799Z,17.52
2022-10-30T19:01:36.171Z,17.52
2022-10-30T19:04:04.341Z,17.50
2022-10-30T19:06:34.206Z,17.47
2022-10-30T19:09:01.725Z,17.35
2022-10-30T19:11:31.878Z,17.34
2022-10-30T19:13:59.771Z,17.18
2022-10-30T19:16:27.740Z,17.11
2022-10-30T19:18:54.830Z,17.07
2022-10-30T19:21:26.513Z,17.25
2022-10-30T19:23:58.146Z,17.18
2022-10-30T19:26:25.153Z,17.11
2022-10-30T19:28:52.398Z,16.81
2022-10-30T19:31:20.180Z,16.65
2022-10-30T19:33:51.438Z,16.43
2022-10-30T19:36:36.249Z,16.65
2022-10-30T19:39:13.926Z,16.64
2022-10-30T19:41:41.401Z,16.64
2022-10-30T19:44:12.703Z,16.70
2022-10-30T19:46:40.386Z,16.72
2022-10-30T19:49:20.072Z,16.70
2022-10-30T19:51:47.378Z,16.66
2022-10-30T19:54:14.505Z,16.59
2022-10-30T19:56:43.841Z,16.28
2022-10-30T19:59:14.644Z,16.15
2022-10-30T20:01:43.597Z,16.26
2022-10-30T20:04:10.999Z,16.34
2022-10-30T20:06:38.133Z,16.10
2022-10-30T20:09:05.395Z,16.19
2022-10-30T20:11:32.387Z,16.15
2022-10-30T20:13:59.432Z,15.82
2022-10-30T20:16:26.466Z,15.70
2022-10-30T20:18:53.564Z,15.85
2022-10-30T20:21:21.033Z,15.90
2022-10-30T20:23:48.412Z,15.88
2022-10-30T20:26:28.507Z,15.98
2022-10-30T20:28:56.207Z,15.95
2022-10-30T20:31:23.866Z,15.97
2022-10-30T20:33:51.040Z,15.95
2022-10-30T20:36:18.697Z,15.89
2022-10-30T20:38:45.955Z,15.87
2022-10-30T20:41:23.912Z,15.75
2022-10-30T20:43:51.484Z,15.77
2022-10-30T20:46:19.791Z,15.76
2022-10-30T20:48:47.622Z,15.72
2022-10-30T20:51:14.838Z,15.70
2022-10-30T20:53:44.188Z,15.63
2022-10-30T20:56:11.605Z,15.62
2022-10-30T20:58:39.334Z,15.61
2022-10-30T21:01:06.472Z,15.60
2022-10-30T21:03:33.740Z,15.54
2022-10-30T21:06:01.743Z,15.36
2022-10-30T21:08:33.518Z,15.40
2022-10-30T21:11:02.888Z,15.33
2022-10-30T21:13:30.362Z,15.39
2022-10-30T21:16:02.584Z,15.31
2022-10-30T21:18:30.127Z,15.38
2022-10-30T21:21:02.069Z,15.31
2022-10-30T21:23:29.747Z,15.31
2022-10-30T21:26:05.548Z,15.30
2022-10-30T21:28:33.017Z,15.28
2022-10-30T21:31:02.596Z,15.24
2022-10-30T21:33:31.591Z,15.05
2022-10-30T21:36:12.628Z,15.13
2022-10-30T21:38:42.512Z,15.10
2022-10-30T21:41:13.921Z,14.99
2022-10-30T21:43:41.751Z,15.00
2022-10-30T21:46:12.448Z,15.01
2022-10-30T21:48:40.400Z,15.01
2022-10-30T21:51:15.491Z,14.54
2022-10-30T21:53:43.706Z,14.69
2022-10-30T21:56:15.475Z,14.64
2022-10-30T21:58:42.922Z,14.60
2022-10-30T22:01:19.336Z,14.57
2022-10-30T22:03:47.141Z,14.59
2022-10-30T22:06:17.034Z,14.60
2022-10-30T22:08:49.271Z,14.56
2022-10-30T22:11:17.851Z,14.58
2022-10-30T22:13:45.338Z,14.63
2022-10-30T22:16:14.563Z,14.56
2022-10-30T22:18:41.850Z,14.47
2022-10-30T22:21:12.269Z,14.51
2022-10-30T22:23:40.733Z,14.35
2022-10-30T22:26:13.722Z,14.21
2022-10-30T22:28:42.459Z,14.33
2022-10-30T22:31:11.477Z,14.08
2022-10-30T22:33:39.288Z,14.02
2022-10-30T22:36:23.497Z,14.19
2022-10-30T22:39:09.731Z,14.17
2022-10-30T22:41:38.276Z,14.20
2022-10-30T22:44:10.679Z,14.11
2022-10-30T22:46:38.741Z,14.05
2022-10-30T22:49:07.203Z,14.12
2022-10-30T22:51:37.790Z,14.04
2022-10-30T22:54:11.147Z,14.00
2022-10-30T22:56:39.582Z,14.07
2022-10-30T22:59:12.272Z,13.93
2022-10-30T23:01:41.219Z,14.00
2022-10-30T23:04:11.507Z,14.02
2022-10-30T23:06:38.597Z,14.04
2022-10-30T23:09:11.266Z,14.03
2022-10-30T23:11:38.287Z,14.01
2022-10-30T23:14:05.327Z,13.84
2022-10-30T23:16:32.511Z,13.81
2022-10-30T23:19:01.152Z,13.80
2022-10-30T23:21:31.208Z,13.84
2022-10-30T23:23:59.603Z,13.91
2022-10-30T23:26:31.173Z,13.83
2022-10-30T23:28:59.899Z,13.86
2022-10-30T23:31:32.398Z,13.91
2022-10-30T23:34:03.861Z,13.94
2022-10-30T23:36:31.130Z,13.94
2022-10-30T23:39:01.693Z,13.94
2022-10-30T23:41:31.463Z,13.90
2022-10-30T23:44:01.448Z,13.88
2022-10-30T23:46:29.494Z,13.87
2022-10-30T23:48:57.452Z,13.86
2022-10-30T23:51:25.038Z,13.80
2022-10-30T23:53:52.405Z,13.75
2022-10-30T23:56:20.008Z,13.78
2022-10-30T23:58:50.536Z,13.74
